Terminal Aerodrome Forecast
Issued by NWS

Home | Current Version | Previous Version | Text Only | Print | Product List | Glossary On
Versions: 1 2 3 4 5 6 7 8 9 10 11 12 13 14
000
FTUS46 KSEW 291721
TAFBLI
TAF
KBLI 291721Z 2918/3018 17009KT P6SM SCT030 BKN070
     FM300400 18004KT P6SM SCT060
     FM301400 VRB03KT P6SM SCT250=

USA.gov is the U.S. government's official web portal to all federal, state and local government web resources and services.